sensor_id;sensor_type;location;lat;lon;timestamp;pressure;altitude;pressure_sealevel;temperature;humidity
40117;BME280;25829;50.228;18.936;2022-10-17T00:00:40;99575.00;;;9.78;75.10
40117;BME280;25829;50.228;18.936;2022-10-17T00:03:41;99575.19;;;9.76;75.02
40117;BME280;25829;50.228;18.936;2022-10-17T00:06:42;99574.53;;;9.74;74.91
40117;BME280;25829;50.228;18.936;2022-10-17T00:09:42;99580.16;;;9.71;74.89
40117;BME280;25829;50.228;18.936;2022-10-17T00:12:43;99582.97;;;9.70;74.87
40117;BME280;25829;50.228;18.936;2022-10-17T00:15:44;99583.31;;;9.67;74.72
40117;BME280;25829;50.228;18.936;2022-10-17T00:18:44;99584.28;;;9.66;74.74
40117;BME280;25829;50.228;18.936;2022-10-17T00:21:48;99585.31;;;9.64;74.87
40117;BME280;25829;50.228;18.936;2022-10-17T00:24:48;99593.19;;;9.64;74.75
40117;BME280;25829;50.228;18.936;2022-10-17T00:27:49;99593.53;;;9.61;74.83
40117;BME280;25829;50.228;18.936;2022-10-17T00:31:00;99590.28;;;9.59;74.79
40117;BME280;25829;50.228;18.936;2022-10-17T00:34:01;99592.44;;;9.56;74.55
40117;BME280;25829;50.228;18.936;2022-10-17T00:37:02;99585.84;;;9.52;74.78
40117;BME280;25829;50.228;18.936;2022-10-17T00:40:05;99587.38;;;9.46;74.59
40117;BME280;25829;50.228;18.936;2022-10-17T00:43:24;99589.69;;;9.41;74.84
40117;BME280;25829;50.228;18.936;2022-10-17T00:46:29;99582.81;;;9.32;74.31
40117;BME280;25829;50.228;18.936;2022-10-17T00:49:33;99595.19;;;9.23;74.93
40117;BME280;25829;50.228;18.936;2022-10-17T00:52:35;99604.25;;;9.21;75.29
40117;BME280;25829;50.228;18.936;2022-10-17T00:55:50;99590.91;;;9.22;75.23
40117;BME280;25829;50.228;18.936;2022-10-17T00:58:53;99602.28;;;9.23;75.14
40117;BME280;25829;50.228;18.936;2022-10-17T01:02:04;99598.63;;;9.24;74.90
40117;BME280;25829;50.228;18.936;2022-10-17T01:05:07;99599.63;;;9.23;74.83
40117;BME280;25829;50.228;18.936;2022-10-17T01:08:08;99593.06;;;9.19;74.58
40117;BME280;25829;50.228;18.936;2022-10-17T01:11:12;99601.78;;;9.19;74.74
40117;BME280;25829;50.228;18.936;2022-10-17T01:14:41;99593.22;;;9.17;75.13
40117;BME280;25829;50.228;18.936;2022-10-17T01:18:12;99601.31;;;9.15;74.90
40117;BME280;25829;50.228;18.936;2022-10-17T01:24:58;99593.28;;;9.09;74.82
40117;BME280;25829;50.228;18.936;2022-10-17T01:28:16;99594.13;;;9.01;75.07
40117;BME280;25829;50.228;18.936;2022-10-17T01:31:25;99598.72;;;8.99;74.98
40117;BME280;25829;50.228;18.936;2022-10-17T01:38:05;99605.31;;;8.95;75.03
40117;BME280;25829;50.228;18.936;2022-10-17T01:44:28;99610.09;;;8.91;74.96
40117;BME280;25829;50.228;18.936;2022-10-17T01:47:33;99616.38;;;8.90;75.11
40117;BME280;25829;50.228;18.936;2022-10-17T01:50:50;99612.44;;;8.86;75.01
40117;BME280;25829;50.228;18.936;2022-10-17T01:53:57;99613.41;;;8.85;74.97
40117;BME280;25829;50.228;18.936;2022-10-17T01:57:04;99607.50;;;8.83;74.49
40117;BME280;25829;50.228;18.936;2022-10-17T02:00:10;99605.19;;;8.80;74.71
40117;BME280;25829;50.228;18.936;2022-10-17T02:03:16;99607.97;;;8.79;74.91
40117;BME280;25829;50.228;18.936;2022-10-17T02:06:18;99600.28;;;8.77;75.03
40117;BME280;25829;50.228;18.936;2022-10-17T02:09:26;99602.91;;;8.77;75.07
40117;BME280;25829;50.228;18.936;2022-10-17T02:12:36;99603.72;;;8.78;75.05
40117;BME280;25829;50.228;18.936;2022-10-17T02:22:46;99601.63;;;8.57;75.19
40117;BME280;25829;50.228;18.936;2022-10-17T02:29:14;99603.28;;;8.50;75.48
40117;BME280;25829;50.228;18.936;2022-10-17T02:32:24;99598.69;;;8.52;75.71
40117;BME280;25829;50.228;18.936;2022-10-17T02:35:29;99606.22;;;8.47;75.39
40117;BME280;25829;50.228;18.936;2022-10-17T02:38:33;99606.56;;;8.43;75.64
40117;BME280;25829;50.228;18.936;2022-10-17T02:41:35;99605.75;;;8.43;75.37
40117;BME280;25829;50.228;18.936;2022-10-17T02:44:42;99603.28;;;8.41;75.20
40117;BME280;25829;50.228;18.936;2022-10-17T02:47:54;99603.28;;;8.41;75.47
40117;BME280;25829;50.228;18.936;2022-10-17T03:00:47;99620.38;;;8.29;75.35
40117;BME280;25829;50.228;18.936;2022-10-17T03:03:49;99632.03;;;8.27;75.57
40117;BME280;25829;50.228;18.936;2022-10-17T03:06:50;99635.31;;;8.29;75.77
40117;BME280;25829;50.228;18.936;2022-10-17T03:09:52;99635.16;;;8.30;75.84
40117;BME280;25829;50.228;18.936;2022-10-17T03:12:52;99645.03;;;8.28;75.58
40117;BME280;25829;50.228;18.936;2022-10-17T03:15:55;99642.41;;;8.28;75.43
40117;BME280;25829;50.228;18.936;2022-10-17T03:18:55;99638.09;;;8.27;75.38
40117;BME280;25829;50.228;18.936;2022-10-17T03:21:56;99637.28;;;8.27;75.38
40117;BME280;25829;50.228;18.936;2022-10-17T03:24:57;99639.28;;;8.25;75.50
40117;BME280;25829;50.228;18.936;2022-10-17T03:27:58;99640.09;;;8.25;75.34
40117;BME280;25829;50.228;18.936;2022-10-17T03:31:12;99641.72;;;8.26;75.35
40117;BME280;25829;50.228;18.936;2022-10-17T03:34:14;99639.41;;;8.23;75.66
40117;BME280;25829;50.228;18.936;2022-10-17T03:37:17;99647.31;;;8.23;75.46
40117;BME280;25829;50.228;18.936;2022-10-17T03:40:18;99667.53;;;8.23;75.43
40117;BME280;25829;50.228;18.936;2022-10-17T03:43:18;99657.66;;;8.16;75.10
40117;BME280;25829;50.228;18.936;2022-10-17T03:46:19;99659.13;;;8.11;75.48
40117;BME280;25829;50.228;18.936;2022-10-17T03:49:21;99667.66;;;8.05;75.08
40117;BME280;25829;50.228;18.936;2022-10-17T03:52:21;99666.34;;;8.01;75.60
40117;BME280;25829;50.228;18.936;2022-10-17T03:55:23;99655.66;;;8.02;75.45
40117;BME280;25829;50.228;18.936;2022-10-17T03:58:24;99654.16;;;7.91;75.61
40117;BME280;25829;50.228;18.936;2022-10-17T04:01:28;99652.00;;;7.79;75.81
40117;BME280;25829;50.228;18.936;2022-10-17T04:04:29;99661.03;;;7.76;75.89
40117;BME280;25829;50.228;18.936;2022-10-17T04:07:31;99657.69;;;7.66;76.49
40117;BME280;25829;50.228;18.936;2022-10-17T04:10:32;99660.91;;;7.52;76.78
40117;BME280;25829;50.228;18.936;2022-10-17T04:13:34;99674.06;;;7.52;77.56
40117;BME280;25829;50.228;18.936;2022-10-17T04:16:35;99672.44;;;7.59;77.69
40117;BME280;25829;50.228;18.936;2022-10-17T04:19:42;99669.50;;;7.70;77.39
40117;BME280;25829;50.228;18.936;2022-10-17T04:22:43;99670.72;;;7.76;77.30
40117;BME280;25829;50.228;18.936;2022-10-17T04:25:44;99673.69;;;7.81;76.72
40117;BME280;25829;50.228;18.936;2022-10-17T04:28:46;99672.38;;;7.85;76.69
40117;BME280;25829;50.228;18.936;2022-10-17T04:31:47;99678.94;;;7.89;76.37
40117;BME280;25829;50.228;18.936;2022-10-17T04:34:57;99672.72;;;7.90;76.06
40117;BME280;25829;50.228;18.936;2022-10-17T04:37:57;99668.28;;;7.90;76.03
40117;BME280;25829;50.228;18.936;2022-10-17T04:41:04;99673.38;;;7.92;76.08
40117;BME280;25829;50.228;18.936;2022-10-17T04:44:05;99672.06;;;7.88;75.88
40117;BME280;25829;50.228;18.936;2022-10-17T04:47:10;99673.53;;;7.82;75.57
40117;BME280;25829;50.228;18.936;2022-10-17T04:50:12;99677.91;;;7.73;76.29
40117;BME280;25829;50.228;18.936;2022-10-17T04:53:14;99677.19;;;7.63;75.89
40117;BME280;25829;50.228;18.936;2022-10-17T04:56:18;99675.53;;;7.54;76.84
40117;BME280;25829;50.228;18.936;2022-10-17T04:59:19;99674.69;;;7.54;76.48
40117;BME280;25829;50.228;18.936;2022-10-17T05:02:23;99679.00;;;7.55;77.35
40117;BME280;25829;50.228;18.936;2022-10-17T05:05:24;99680.81;;;7.62;77.01
40117;BME280;25829;50.228;18.936;2022-10-17T05:08:27;99676.06;;;7.66;77.07
40117;BME280;25829;50.228;18.936;2022-10-17T05:11:28;99672.81;;;7.72;77.18
40117;BME280;25829;50.228;18.936;2022-10-17T05:17:36;99680.25;;;7.77;76.39
40117;BME280;25829;50.228;18.936;2022-10-17T05:20:38;99687.59;;;7.73;76.24
40117;BME280;25829;50.228;18.936;2022-10-17T05:23:40;99686.41;;;7.67;76.29
40117;BME280;25829;50.228;18.936;2022-10-17T05:26:41;99689.84;;;7.68;76.60
40117;BME280;25829;50.228;18.936;2022-10-17T05:29:42;99690.34;;;7.71;76.90
40117;BME280;25829;50.228;18.936;2022-10-17T05:32:55;99700.88;;;7.71;76.97
40117;BME280;25829;50.228;18.936;2022-10-17T05:35:56;99699.63;;;7.76;77.02
40117;BME280;25829;50.228;18.936;2022-10-17T05:38:58;99702.75;;;7.79;77.15
40117;BME280;25829;50.228;18.936;2022-10-17T05:41:59;99703.91;;;7.85;77.26
40117;BME280;25829;50.228;18.936;2022-10-17T05:45:01;99711.16;;;7.91;77.11
40117;BME280;25829;50.228;18.936;2022-10-17T05:48:03;99711.66;;;7.94;77.15
40117;BME280;25829;50.228;18.936;2022-10-17T05:51:07;99712.03;;;8.00;77.00
40117;BME280;25829;50.228;18.936;2022-10-17T05:54:09;99714.97;;;7.96;77.34
40117;BME280;25829;50.228;18.936;2022-10-17T05:57:10;99720.69;;;7.92;77.32
40117;BME280;25829;50.228;18.936;2022-10-17T06:00:12;99717.59;;;7.96;77.39
40117;BME280;25829;50.228;18.936;2022-10-17T06:03:17;99719.72;;;8.01;77.64
40117;BME280;25829;50.228;18.936;2022-10-17T06:06:20;99721.88;;;8.06;77.41
40117;BME280;25829;50.228;18.936;2022-10-17T06:09:22;99721.22;;;8.12;78.03
40117;BME280;25829;50.228;18.936;2022-10-17T06:12:25;99727.66;;;8.17;78.38
40117;BME280;25829;50.228;18.936;2022-10-17T06:15:27;99726.69;;;8.27;78.42
40117;BME280;25829;50.228;18.936;2022-10-17T06:18:38;99736.41;;;8.34;78.02
40117;BME280;25829;50.228;18.936;2022-10-17T06:21:39;99738.38;;;8.32;78.44
40117;BME280;25829;50.228;18.936;2022-10-17T06:24:45;99740.69;;;8.35;79.34
40117;BME280;25829;50.228;18.936;2022-10-17T06:27:46;99745.28;;;8.50;78.93
40117;BME280;25829;50.228;18.936;2022-10-17T06:30:47;99744.84;;;8.62;79.11
40117;BME280;25829;50.228;18.936;2022-10-17T06:33:48;99745.63;;;8.71;79.02
40117;BME280;25829;50.228;18.936;2022-10-17T06:36:49;99749.13;;;8.80;79.10
40117;BME280;25829;50.228;18.936;2022-10-17T06:39:52;99749.59;;;8.91;78.97
40117;BME280;25829;50.228;18.936;2022-10-17T06:42:55;99757.31;;;9.01;79.14
40117;BME280;25829;50.228;18.936;2022-10-17T06:45:59;99761.44;;;9.12;79.09
40117;BME280;25829;50.228;18.936;2022-10-17T06:49:06;99761.91;;;9.24;79.17
40117;BME280;25829;50.228;18.936;2022-10-17T06:52:30;99765.88;;;9.36;79.51
40117;BME280;25829;50.228;18.936;2022-10-17T06:55:51;99776.38;;;9.52;79.66
40117;BME280;25829;50.228;18.936;2022-10-17T06:59:19;99776.50;;;9.67;79.96
40117;BME280;25829;50.228;18.936;2022-10-17T07:02:33;99773.81;;;9.83;80.21
40117;BME280;25829;50.228;18.936;2022-10-17T07:05:35;99775.56;;;9.99;80.34
40117;BME280;25829;50.228;18.936;2022-10-17T07:08:36;99786.84;;;10.16;80.19
40117;BME280;25829;50.228;18.936;2022-10-17T07:11:37;99781.66;;;10.31;80.34
40117;BME280;25829;50.228;18.936;2022-10-17T07:14:39;99783.75;;;10.44;80.61
40117;BME280;25829;50.228;18.936;2022-10-17T07:17:40;99784.63;;;10.59;80.33
40117;BME280;25829;50.228;18.936;2022-10-17T07:20:41;99795.28;;;10.74;80.34
40117;BME280;25829;50.228;18.936;2022-10-17T07:23:42;99783.63;;;10.91;80.07
40117;BME280;25829;50.228;18.936;2022-10-17T07:26:43;99794.22;;;11.06;79.48
40117;BME280;25829;50.228;18.936;2022-10-17T07:29:44;99796.72;;;11.22;79.41
40117;BME280;25829;50.228;18.936;2022-10-17T07:32:52;99793.56;;;11.42;78.73
40117;BME280;25829;50.228;18.936;2022-10-17T07:35:53;99799.34;;;11.60;78.60
40117;BME280;25829;50.228;18.936;2022-10-17T07:38:54;99808.53;;;11.79;78.00
40117;BME280;25829;50.228;18.936;2022-10-17T07:41:56;99805.88;;;11.94;77.76
40117;BME280;25829;50.228;18.936;2022-10-17T07:44:58;99797.97;;;12.09;77.12
40117;BME280;25829;50.228;18.936;2022-10-17T07:48:01;99795.94;;;12.26;76.68
40117;BME280;25829;50.228;18.936;2022-10-17T07:51:05;99794.72;;;12.43;76.46
40117;BME280;25829;50.228;18.936;2022-10-17T07:54:06;99793.22;;;12.55;76.00
40117;BME280;25829;50.228;18.936;2022-10-17T07:57:07;99793.34;;;12.68;75.77
40117;BME280;25829;50.228;18.936;2022-10-17T08:00:09;99790.84;;;12.82;75.45
40117;BME280;25829;50.228;18.936;2022-10-17T08:03:16;99787.47;;;12.94;75.13
40117;BME280;25829;50.228;18.936;2022-10-17T08:06:17;99795.75;;;13.06;74.51
40117;BME280;25829;50.228;18.936;2022-10-17T08:09:18;99792.81;;;13.16;74.39
40117;BME280;25829;50.228;18.936;2022-10-17T08:12:19;99776.75;;;13.24;74.39
40117;BME280;25829;50.228;18.936;2022-10-17T08:15:19;99789.84;;;13.32;74.22
40117;BME280;25829;50.228;18.936;2022-10-17T08:18:20;99795.63;;;13.42;74.19
40117;BME280;25829;50.228;18.936;2022-10-17T08:21:21;99796.94;;;13.53;73.84
40117;BME280;25829;50.228;18.936;2022-10-17T08:24:22;99799.06;;;13.64;73.75
40117;BME280;25829;50.228;18.936;2022-10-17T08:27:22;99806.25;;;13.77;73.27
40117;BME280;25829;50.228;18.936;2022-10-17T08:30:24;99803.50;;;13.92;73.02
40117;BME280;25829;50.228;18.936;2022-10-17T08:33:25;99803.53;;;14.05;72.40
40117;BME280;25829;50.228;18.936;2022-10-17T08:36:26;99803.44;;;14.20;71.80
40117;BME280;25829;50.228;18.936;2022-10-17T08:39:28;99804.75;;;14.37;70.83
40117;BME280;25829;50.228;18.936;2022-10-17T08:43:01;99807.66;;;14.56;70.43
40117;BME280;25829;50.228;18.936;2022-10-17T08:46:07;99805.03;;;14.76;69.93
40117;BME280;25829;50.228;18.936;2022-10-17T08:49:36;99811.81;;;14.98;69.23
40117;BME280;25829;50.228;18.936;2022-10-17T08:52:48;99811.19;;;15.16;68.65
40117;BME280;25829;50.228;18.936;2022-10-17T08:55:52;99810.00;;;15.39;67.16
40117;BME280;25829;50.228;18.936;2022-10-17T08:58:53;99803.22;;;15.63;67.29
40117;BME280;25829;50.228;18.936;2022-10-17T09:02:11;99802.97;;;15.84;67.08
40117;BME280;25829;50.228;18.936;2022-10-17T09:08:31;99801.19;;;16.30;64.79
40117;BME280;25829;50.228;18.936;2022-10-17T09:18:38;99795.53;;;16.83;62.81
40117;BME280;25829;50.228;18.936;2022-10-17T09:21:45;99794.41;;;17.04;63.29
40117;BME280;25829;50.228;18.936;2022-10-17T09:24:52;99791.13;;;17.27;62.31
40117;BME280;25829;50.228;18.936;2022-10-17T09:28:31;99794.38;;;17.54;60.88
40117;BME280;25829;50.228;18.936;2022-10-17T09:31:41;99793.88;;;17.82;59.31
40117;BME280;25829;50.228;18.936;2022-10-17T09:34:44;99797.94;;;18.21;61.06
40117;BME280;25829;50.228;18.936;2022-10-17T09:37:45;99795.75;;;18.78;58.96
40117;BME280;25829;50.228;18.936;2022-10-17T09:41:06;99799.34;;;19.38;56.94
40117;BME280;25829;50.228;18.936;2022-10-17T09:44:28;99805.13;;;19.93;57.14
40117;BME280;25829;50.228;18.936;2022-10-17T09:50:48;99796.75;;;20.87;57.42
40117;BME280;25829;50.228;18.936;2022-10-17T09:53:54;99793.16;;;21.15;51.94
40117;BME280;25829;50.228;18.936;2022-10-17T09:57:05;99792.50;;;21.20;51.17
40117;BME280;25829;50.228;18.936;2022-10-17T10:00:06;99793.16;;;21.15;50.74
40117;BME280;25829;50.228;18.936;2022-10-17T10:03:24;99794.34;;;21.03;51.23
40117;BME280;25829;50.228;18.936;2022-10-17T10:06:26;99798.88;;;20.85;52.33
40117;BME280;25829;50.228;18.936;2022-10-17T10:09:32;99794.31;;;20.86;52.65
40117;BME280;25829;50.228;18.936;2022-10-17T10:12:36;99801.13;;;20.76;51.84
40117;BME280;25829;50.228;18.936;2022-10-17T10:15:43;99801.06;;;20.71;53.21
40117;BME280;25829;50.228;18.936;2022-10-17T10:18:45;99797.75;;;20.81;50.97
40117;BME280;25829;50.228;18.936;2022-10-17T10:22:02;99798.94;;;20.90;52.40
40117;BME280;25829;50.228;18.936;2022-10-17T10:25:14;99797.06;;;20.91;52.08
40117;BME280;25829;50.228;18.936;2022-10-17T10:28:16;99801.22;;;20.82;50.85
40117;BME280;25829;50.228;18.936;2022-10-17T10:31:25;99793.00;;;20.71;52.62
40117;BME280;25829;50.228;18.936;2022-10-17T10:34:28;99801.09;;;20.60;53.36
40117;BME280;25829;50.228;18.936;2022-10-17T10:40:49;99795.50;;;20.33;52.80
40117;BME280;25829;50.228;18.936;2022-10-17T10:43:52;99783.72;;;20.22;52.90
40117;BME280;25829;50.228;18.936;2022-10-17T10:47:23;99789.16;;;20.10;51.70
40117;BME280;25829;50.228;18.936;2022-10-17T10:50:35;99780.91;;;20.00;53.40
40117;BME280;25829;50.228;18.936;2022-10-17T10:56:44;99777.19;;;19.89;53.25
40117;BME280;25829;50.228;18.936;2022-10-17T11:00:17;99772.66;;;19.90;52.82
40117;BME280;25829;50.228;18.936;2022-10-17T11:03:24;99779.06;;;19.89;53.30
40117;BME280;25829;50.228;18.936;2022-10-17T11:06:28;99777.44;;;19.88;53.63
40117;BME280;25829;50.228;18.936;2022-10-17T11:12:51;99782.31;;;19.91;53.22
40117;BME280;25829;50.228;18.936;2022-10-17T11:19:27;99769.03;;;19.96;52.49
40117;BME280;25829;50.228;18.936;2022-10-17T11:22:37;99774.41;;;19.96;53.28
40117;BME280;25829;50.228;18.936;2022-10-17T11:25:41;99767.41;;;19.95;53.07
40117;BME280;25829;50.228;18.936;2022-10-17T11:28:42;99762.06;;;19.95;52.91
40117;BME280;25829;50.228;18.936;2022-10-17T11:31:49;99762.06;;;19.95;52.87
40117;BME280;25829;50.228;18.936;2022-10-17T11:35:03;99762.88;;;19.95;50.48
40117;BME280;25829;50.228;18.936;2022-10-17T11:38:32;99765.78;;;19.94;51.03
40117;BME280;25829;50.228;18.936;2022-10-17T11:41:46;99759.59;;;19.93;51.95
40117;BME280;25829;50.228;18.936;2022-10-17T11:44:55;99763.09;;;19.94;52.18
40117;BME280;25829;50.228;18.936;2022-10-17T11:48:21;99762.63;;;19.97;51.75
40117;BME280;25829;50.228;18.936;2022-10-17T11:51:53;99760.28;;;20.00;51.40
40117;BME280;25829;50.228;18.936;2022-10-17T11:55:15;99751.22;;;20.01;52.11
40117;BME280;25829;50.228;18.936;2022-10-17T12:01:51;99755.72;;;20.01;51.11
40117;BME280;25829;50.228;18.936;2022-10-17T12:11:44;99747.00;;;20.05;51.52
40117;BME280;25829;50.228;18.936;2022-10-17T12:14:50;99744.53;;;20.04;52.31
40117;BME280;25829;50.228;18.936;2022-10-17T12:18:01;99743.00;;;20.08;52.18
40117;BME280;25829;50.228;18.936;2022-10-17T12:21:02;99744.66;;;20.09;52.77
40117;BME280;25829;50.228;18.936;2022-10-17T12:24:33;99739.97;;;20.16;51.78
40117;BME280;25829;50.228;18.936;2022-10-17T12:30:36;99738.09;;;20.17;52.79
40117;BME280;25829;50.228;18.936;2022-10-17T12:33:50;99740.53;;;20.18;52.63
40117;BME280;25829;50.228;18.936;2022-10-17T12:36:52;99731.19;;;20.21;52.67
40117;BME280;25829;50.228;18.936;2022-10-17T12:39:53;99738.75;;;20.24;52.81
40117;BME280;25829;50.228;18.936;2022-10-17T12:42:55;99737.47;;;20.26;52.66
40117;BME280;25829;50.228;18.936;2022-10-17T12:46:00;99738.84;;;20.29;51.38
40117;BME280;25829;50.228;18.936;2022-10-17T12:49:03;99736.16;;;20.29;52.02
40117;BME280;25829;50.228;18.936;2022-10-17T12:55:22;99729.78;;;20.30;52.38
40117;BME280;25829;50.228;18.936;2022-10-17T12:58:24;99728.72;;;20.31;52.39
40117;BME280;25829;50.228;18.936;2022-10-17T13:01:30;99724.16;;;20.32;52.50
40117;BME280;25829;50.228;18.936;2022-10-17T13:04:31;99733.00;;;20.32;51.58
40117;BME280;25829;50.228;18.936;2022-10-17T13:07:36;99726.38;;;20.35;52.10
40117;BME280;25829;50.228;18.936;2022-10-17T13:10:44;99730.66;;;20.36;51.95
40117;BME280;25829;50.228;18.936;2022-10-17T13:13:52;99728.81;;;20.36;52.03
40117;BME280;25829;50.228;18.936;2022-10-17T13:16:58;99739.03;;;20.39;51.65
40117;BME280;25829;50.228;18.936;2022-10-17T13:19:59;99737.19;;;20.40;51.02
40117;BME280;25829;50.228;18.936;2022-10-17T13:23:00;99745.78;;;20.42;50.94
40117;BME280;25829;50.228;18.936;2022-10-17T13:26:15;99736.13;;;20.41;50.37
40117;BME280;25829;50.228;18.936;2022-10-17T13:29:18;99728.56;;;20.38;50.76
40117;BME280;25829;50.228;18.936;2022-10-17T13:32:22;99726.94;;;20.37;50.55
40117;BME280;25829;50.228;18.936;2022-10-17T13:35:30;99723.78;;;20.40;50.04
40117;BME280;25829;50.228;18.936;2022-10-17T13:38:33;99717.59;;;20.39;49.55
40117;BME280;25829;50.228;18.936;2022-10-17T13:41:35;99720.84;;;20.41;49.60
40117;BME280;25829;50.228;18.936;2022-10-17T13:44:35;99721.09;;;20.40;49.43
40117;BME280;25829;50.228;18.936;2022-10-17T13:47:38;99718.19;;;20.41;49.57
40117;BME280;25829;50.228;18.936;2022-10-17T13:50:40;99720.03;;;20.41;49.05
40117;BME280;25829;50.228;18.936;2022-10-17T13:53:41;99713.06;;;20.40;49.50
40117;BME280;25829;50.228;18.936;2022-10-17T13:56:44;99715.97;;;20.38;49.42
40117;BME280;25829;50.228;18.936;2022-10-17T13:59:48;99722.13;;;20.39;48.88
40117;BME280;25829;50.228;18.936;2022-10-17T14:02:49;99712.72;;;20.36;49.50
40117;BME280;25829;50.228;18.936;2022-10-17T14:12:20;99712.63;;;20.31;48.79
40117;BME280;25829;50.228;18.936;2022-10-17T14:15:31;99721.72;;;20.30;49.02
40117;BME280;25829;50.228;18.936;2022-10-17T14:18:34;99719.28;;;20.28;49.25
40117;BME280;25829;50.228;18.936;2022-10-17T14:21:35;99715.47;;;20.24;48.92
40117;BME280;25829;50.228;18.936;2022-10-17T14:24:36;99725.63;;;20.22;49.24
40117;BME280;25829;50.228;18.936;2022-10-17T14:27:53;99711.63;;;20.20;48.45
40117;BME280;25829;50.228;18.936;2022-10-17T14:31:11;99713.97;;;20.17;48.99
40117;BME280;25829;50.228;18.936;2022-10-17T14:34:31;99712.03;;;20.12;48.96
40117;BME280;25829;50.228;18.936;2022-10-17T14:37:47;99716.81;;;20.10;48.57
40117;BME280;25829;50.228;18.936;2022-10-17T14:41:00;99710.31;;;20.06;49.71
40117;BME280;25829;50.228;18.936;2022-10-17T14:44:05;99716.38;;;20.01;49.46
40117;BME280;25829;50.228;18.936;2022-10-17T14:47:23;99717.88;;;19.97;49.23
40117;BME280;25829;50.228;18.936;2022-10-17T14:50:30;99721.28;;;19.93;49.77
40117;BME280;25829;50.228;18.936;2022-10-17T14:53:31;99713.97;;;19.88;50.15
40117;BME280;25829;50.228;18.936;2022-10-17T14:56:40;99714.47;;;19.85;49.95
40117;BME280;25829;50.228;18.936;2022-10-17T14:59:42;99716.47;;;19.78;50.17
40117;BME280;25829;50.228;18.936;2022-10-17T15:02:44;99721.69;;;19.73;50.49
40117;BME280;25829;50.228;18.936;2022-10-17T15:05:46;99707.16;;;19.69;50.69
40117;BME280;25829;50.228;18.936;2022-10-17T15:08:47;99716.72;;;19.65;50.74
40117;BME280;25829;50.228;18.936;2022-10-17T15:11:47;99705.84;;;19.59;50.81
40117;BME280;25829;50.228;18.936;2022-10-17T15:14:50;99707.84;;;19.52;50.76
40117;BME280;25829;50.228;18.936;2022-10-17T15:17:51;99702.63;;;19.46;51.00
40117;BME280;25829;50.228;18.936;2022-10-17T15:20:52;99707.88;;;19.41;51.18
40117;BME280;25829;50.228;18.936;2022-10-17T15:23:53;99707.41;;;19.32;51.10
40117;BME280;25829;50.228;18.936;2022-10-17T15:26:54;99710.25;;;19.25;51.24
40117;BME280;25829;50.228;18.936;2022-10-17T15:29:55;99710.56;;;19.17;51.49
40117;BME280;25829;50.228;18.936;2022-10-17T15:32:57;99708.25;;;19.09;51.36
40117;BME280;25829;50.228;18.936;2022-10-17T15:35:58;99706.41;;;18.98;51.77
40117;BME280;25829;50.228;18.936;2022-10-17T15:39:00;99706.16;;;18.88;52.13
40117;BME280;25829;50.228;18.936;2022-10-17T15:42:01;99707.16;;;18.75;53.24
40117;BME280;25829;50.228;18.936;2022-10-17T15:45:02;99698.53;;;18.61;53.64
40117;BME280;25829;50.228;18.936;2022-10-17T15:48:05;99709.06;;;18.44;53.73
40117;BME280;25829;50.228;18.936;2022-10-17T15:51:07;99706.69;;;18.24;53.98
40117;BME280;25829;50.228;18.936;2022-10-17T15:54:08;99705.69;;;18.07;54.32
40117;BME280;25829;50.228;18.936;2022-10-17T15:57:21;99709.53;;;17.92;54.52
40117;BME280;25829;50.228;18.936;2022-10-17T16:00:23;99717.72;;;17.79;54.94
40117;BME280;25829;50.228;18.936;2022-10-17T16:03:24;99708.84;;;17.67;55.78
40117;BME280;25829;50.228;18.936;2022-10-17T16:06:25;99710.03;;;17.53;56.40
40117;BME280;25829;50.228;18.936;2022-10-17T16:09:26;99708.31;;;17.40;56.61
40117;BME280;25829;50.228;18.936;2022-10-17T16:12:28;99707.88;;;17.25;56.48
40117;BME280;25829;50.228;18.936;2022-10-17T16:15:30;99705.94;;;17.07;56.82
40117;BME280;25829;50.228;18.936;2022-10-17T16:18:31;99710.56;;;16.93;56.88
40117;BME280;25829;50.228;18.936;2022-10-17T16:21:34;99706.56;;;16.84;57.15
40117;BME280;25829;50.228;18.936;2022-10-17T16:24:35;99710.34;;;16.76;57.70
40117;BME280;25829;50.228;18.936;2022-10-17T16:27:36;99715.31;;;16.66;58.17
40117;BME280;25829;50.228;18.936;2022-10-17T16:30:41;99718.25;;;16.58;58.01
40117;BME280;25829;50.228;18.936;2022-10-17T16:33:42;99717.09;;;16.47;57.61
40117;BME280;25829;50.228;18.936;2022-10-17T16:36:43;99734.97;;;16.40;57.93
40117;BME280;25829;50.228;18.936;2022-10-17T16:39:43;99730.72;;;16.32;57.77
40117;BME280;25829;50.228;18.936;2022-10-17T16:42:50;99734.59;;;16.30;57.74
40117;BME280;25829;50.228;18.936;2022-10-17T16:45:50;99737.91;;;16.25;57.82
40117;BME280;25829;50.228;18.936;2022-10-17T16:48:51;99728.91;;;16.19;57.87
40117;BME280;25829;50.228;18.936;2022-10-17T16:51:52;99728.34;;;16.11;57.93
40117;BME280;25829;50.228;18.936;2022-10-17T16:54:53;99735.97;;;16.00;58.16
40117;BME280;25829;50.228;18.936;2022-10-17T16:57:54;99740.69;;;15.92;58.45
40117;BME280;25829;50.228;18.936;2022-10-17T17:00:55;99731.34;;;15.83;58.57
40117;BME280;25829;50.228;18.936;2022-10-17T17:03:56;99729.94;;;15.73;58.71
40117;BME280;25829;50.228;18.936;2022-10-17T17:06:56;99744.06;;;15.67;58.96
40117;BME280;25829;50.228;18.936;2022-10-17T17:09:57;99733.25;;;15.62;58.78
40117;BME280;25829;50.228;18.936;2022-10-17T17:12:58;99729.97;;;15.60;59.28
40117;BME280;25829;50.228;18.936;2022-10-17T17:16:26;99732.22;;;15.56;59.70
40117;BME280;25829;50.228;18.936;2022-10-17T17:19:27;99731.84;;;15.46;60.04
40117;BME280;25829;50.228;18.936;2022-10-17T17:22:28;99731.25;;;15.38;60.38
40117;BME280;25829;50.228;18.936;2022-10-17T17:25:28;99729.22;;;15.26;60.54
40117;BME280;25829;50.228;18.936;2022-10-17T17:28:30;99723.28;;;15.18;60.33
40117;BME280;25829;50.228;18.936;2022-10-17T17:31:33;99722.06;;;15.07;60.54
40117;BME280;25829;50.228;18.936;2022-10-17T17:34:35;99723.91;;;14.93;60.60
40117;BME280;25829;50.228;18.936;2022-10-17T17:37:36;99725.53;;;14.81;61.19